Airfield :
LOGIN :

Register | Disclaimer

   EN    FR    IT 

 










Legend :    VFR   Marginal VFR   IFR   Intensive IFR   Very Intensive IFR
Visi :
Ceiling :
>= 8 km
>= 3000ft
5 to 8 km
1000 to 3000 ft
1500m to 5 km
500 to 1000 ft
800 to 1500m
200 to 500 ft
< 800m
< 200 ft
Symbols :   Thunderstorms  Fog  Heavy snow  Heavy precipitations  Wind > 20 kt
SIGMETs :     Misc.  Thunderstorms  Icing  Turbulence  Mountain Waves  Volcanic Ashes







- Airport Elevation : 1649 ft
- IATA code : HHN


EDFH - Frankfurt-Hahn Rhineland-Palatinate

CURRENT METAR :
  • 150120Z 13003KT 080V190 9999 BKN020 M03/M07 Q1022

EXPIRED METARs :
  • 150050Z 13003KT 080V180 9999 BKN020 M03/M07 Q1022
  • 150020Z 12004KT 070V170 9999 BKN020 M03/M07 Q1022
  • 142350Z 12005KT 050V160 9999 BKN020 M03/M07 Q1022

TAF TAF EDFH
Valid from the 15 at 00:00 until the 16 at 00:00 UTC


142300Z 1500/1524 10006KT 9999 BKN020
TEMPO 1503/1509 BKN012
BECMG 1509/1512 13012KT
No reported NOTAMs for that airfield.



MET'MAP, your aeronautical weather chart ! - Copyright ORBIFLY December 2007 - Disclaimer

ORBIFLY MET'MAP TEAM :

Programming & Development : Alexandra Zaïnal
Concept & Development : Baudouin d'Aumeries
Co-Development & Prog : Marc-Olivier Méhu
Technical & hardware support : Manuel Goepfert

Contact : metmap@orbifly.com




SOURCES & CREDITS :

   NOAA